createdAt,value
2018-07-06T00:02:22.491Z,3.42
2018-07-06T00:05:13.676Z,3.25
2018-07-06T00:07:53.170Z,3.33
2018-07-06T00:10:32.837Z,3.33
2018-07-06T00:13:12.361Z,3.47
2018-07-06T00:15:57.300Z,3.37
2018-07-06T00:18:36.950Z,2.98
2018-07-06T00:21:16.713Z,3.50
2018-07-06T00:23:56.332Z,2.85
2018-07-06T00:26:47.529Z,3.12
2018-07-06T00:29:27.397Z,3.30
2018-07-06T00:32:06.937Z,3.27
2018-07-06T00:34:49.137Z,3.08
2018-07-06T00:37:28.649Z,3.10
2018-07-06T00:40:08.348Z,2.98
2018-07-06T00:42:47.927Z,2.90
2018-07-06T00:57:03.235Z,2.80
2018-07-06T00:59:42.681Z,3.27
2018-07-06T01:02:22.157Z,3.27
2018-07-06T01:05:05.741Z,3.37
2018-07-06T01:07:45.405Z,3.10
2018-07-06T01:10:24.849Z,3.10
2018-07-06T01:13:04.357Z,3.10
2018-07-06T01:15:43.970Z,3.42
2018-07-06T01:18:23.722Z,3.02
2018-07-06T01:21:03.182Z,2.95
2018-07-06T01:23:42.623Z,3.25
2018-07-06T01:26:26.057Z,3.12
2018-07-06T01:29:05.775Z,3.37
2018-07-06T01:31:45.262Z,3.75
2018-07-06T01:34:24.991Z,3.65
2018-07-06T01:37:04.677Z,3.35
2018-07-06T01:39:44.296Z,3.37
2018-07-06T01:42:24.304Z,3.65
2018-07-06T01:48:08.036Z,3.62
2018-07-06T01:50:47.793Z,3.30
2018-07-06T01:53:27.543Z,3.75
2018-07-06T02:04:47.581Z,3.35
2018-07-06T02:07:27.987Z,3.20
2018-07-06T02:10:07.825Z,3.10
2018-07-06T02:12:47.605Z,3.17
2018-07-06T02:15:27.411Z,3.70
2018-07-06T02:18:06.978Z,3.20
2018-07-06T02:20:46.576Z,3.10
2018-07-06T02:23:26.073Z,2.92
2018-07-06T02:26:05.629Z,3.17
2018-07-06T02:28:45.681Z,3.52
2018-07-06T02:31:25.349Z,3.20
2018-07-06T02:34:05.018Z,2.90
2018-07-06T02:36:44.613Z,3.05
2018-07-06T02:39:24.197Z,2.92
2018-07-06T02:42:03.869Z,3.52
2018-07-06T02:44:43.589Z,3.42
2018-07-06T02:47:23.383Z,3.75
2018-07-06T02:50:03.320Z,3.60
2018-07-06T02:52:43.948Z,3.77
2018-07-06T02:58:16.514Z,3.90
2018-07-06T03:00:56.140Z,3.42
2018-07-06T03:03:35.762Z,3.50
2018-07-06T03:06:15.359Z,3.90
2018-07-06T03:08:55.074Z,3.55
2018-07-06T03:11:35.123Z,3.90
2018-07-06T03:14:14.895Z,4.03
2018-07-06T03:16:54.687Z,3.67
2018-07-06T03:19:34.317Z,3.80
2018-07-06T03:22:14.019Z,3.50
2018-07-06T03:24:53.728Z,3.83
2018-07-06T03:27:33.711Z,4.05
2018-07-06T03:30:13.530Z,3.72
2018-07-06T03:32:53.112Z,3.50
2018-07-06T03:35:33.173Z,3.58
2018-07-06T03:38:12.933Z,3.60
2018-07-06T03:40:52.650Z,3.30
2018-07-06T03:43:32.354Z,3.50
2018-07-06T03:46:15.940Z,3.20
2018-07-06T03:48:55.481Z,3.30
2018-07-06T03:51:35.214Z,3.08
2018-07-06T03:54:14.960Z,3.10
2018-07-06T03:56:54.764Z,3.00
2018-07-06T03:59:34.555Z,2.95
2018-07-06T04:02:14.158Z,3.17
2018-07-06T04:04:53.741Z,3.33
2018-07-06T04:07:33.486Z,3.30
2018-07-06T04:10:13.184Z,3.30
2018-07-06T04:12:52.730Z,3.42
2018-07-06T04:15:32.165Z,3.35
2018-07-06T04:18:11.766Z,3.50
2018-07-06T04:20:52.472Z,3.45
2018-07-06T04:23:32.090Z,4.30
2018-07-06T04:26:17.040Z,4.50
2018-07-06T04:28:56.796Z,4.05
2018-07-06T04:31:36.444Z,4.20
2018-07-06T04:34:16.260Z,4.40
2018-07-06T04:36:56.006Z,4.80
2018-07-06T04:39:35.754Z,4.40
2018-07-06T04:42:15.399Z,4.80
2018-07-06T04:44:54.943Z,4.20
2018-07-06T04:47:34.557Z,3.95
2018-07-06T04:50:14.119Z,3.40
2018-07-06T04:52:53.834Z,3.43
2018-07-06T04:55:33.417Z,4.20
2018-07-06T04:58:13.157Z,3.10
2018-07-06T05:00:52.909Z,3.02
2018-07-06T05:03:32.672Z,2.83
2018-07-06T05:06:13.457Z,2.90
2018-07-06T05:08:53.163Z,3.12
2018-07-06T05:11:32.966Z,3.40
2018-07-06T05:14:12.640Z,2.92
2018-07-06T05:16:52.210Z,3.00
2018-07-06T05:19:31.919Z,3.10
2018-07-06T05:22:11.906Z,3.60
2018-07-06T05:24:51.646Z,3.70
2018-07-06T05:27:31.379Z,3.27
2018-07-06T05:30:11.077Z,3.70
2018-07-06T05:32:50.798Z,3.62
2018-07-06T05:35:35.643Z,3.77
2018-07-06T05:38:15.373Z,4.78
2018-07-06T05:40:55.017Z,5.97
2018-07-06T05:43:34.866Z,3.95
2018-07-06T05:46:14.591Z,3.65
2018-07-06T05:48:54.578Z,3.72
2018-07-06T05:51:34.293Z,3.70
2018-07-06T05:59:20.349Z,4.87
2018-07-06T06:01:59.943Z,3.40
2018-07-06T06:04:39.425Z,2.90
2018-07-06T06:07:19.132Z,4.20
2018-07-06T06:09:47.595Z,3.47
2018-07-06T06:12:16.395Z,3.22
2018-07-06T06:14:45.099Z,3.52
2018-07-06T06:17:13.687Z,2.67
2018-07-06T06:19:42.259Z,4.45
2018-07-06T06:22:10.877Z,3.22
2018-07-06T06:24:39.402Z,2.90
2018-07-06T06:27:08.011Z,3.30
2018-07-06T06:29:37.177Z,2.70
2018-07-06T06:32:06.441Z,3.05
2018-07-06T06:34:35.759Z,2.65
2018-07-06T06:37:04.348Z,2.70
2018-07-06T06:39:33.680Z,2.75
2018-07-06T06:42:02.447Z,2.90
2018-07-06T06:44:31.432Z,2.87
2018-07-06T06:47:01.112Z,2.87
2018-07-06T06:49:31.053Z,2.80
2018-07-06T06:52:00.369Z,3.80
2018-07-06T06:54:29.267Z,4.12
2018-07-06T06:57:02.884Z,2.65
2018-07-06T06:59:31.507Z,3.15
2018-07-06T07:02:00.496Z,2.85
2018-07-06T07:04:29.023Z,3.20
2018-07-06T07:07:06.967Z,3.05
2018-07-06T07:09:35.619Z,3.55
2018-07-06T07:12:04.199Z,3.52
2018-07-06T07:14:32.855Z,3.58
2018-07-06T07:17:01.327Z,2.90
2018-07-06T07:19:30.010Z,3.30
2018-07-06T07:21:58.805Z,3.60
2018-07-06T07:24:27.435Z,2.67
2018-07-06T07:26:56.541Z,3.20
2018-07-06T07:29:25.099Z,3.45
2018-07-06T07:31:53.935Z,3.10
2018-07-06T07:34:23.186Z,3.20
2018-07-06T07:36:51.874Z,2.80
2018-07-06T07:39:20.407Z,3.10
2018-07-06T07:41:49.013Z,2.98
2018-07-06T07:44:17.560Z,3.72
2018-07-06T07:46:46.183Z,3.42
2018-07-06T07:49:14.703Z,4.75
2018-07-06T07:51:56.457Z,3.95
2018-07-06T07:54:34.226Z,3.55
2018-07-06T07:57:03.301Z,4.45
2018-07-06T07:59:33.549Z,3.60
2018-07-06T08:02:02.811Z,3.30
2018-07-06T08:04:31.321Z,3.75
2018-07-06T08:06:59.899Z,3.40
2018-07-06T08:09:28.690Z,3.50
2018-07-06T08:11:58.699Z,3.47
2018-07-06T08:14:27.267Z,3.58
2018-07-06T08:16:55.884Z,3.40
2018-07-06T08:19:24.633Z,3.40
2018-07-06T08:21:53.320Z,3.37
2018-07-06T08:24:22.091Z,3.65
2018-07-06T08:26:50.673Z,3.58
2018-07-06T08:29:19.092Z,3.30
2018-07-06T08:31:47.736Z,3.55
2018-07-06T08:34:27.307Z,3.37
2018-07-06T08:37:51.257Z,3.90
2018-07-06T08:40:20.487Z,3.80
2018-07-06T08:42:51.123Z,3.20
2018-07-06T08:45:19.638Z,3.87
2018-07-06T08:47:48.588Z,3.15
2018-07-06T08:50:17.544Z,3.35
2018-07-06T08:52:48.093Z,3.55
2018-07-06T08:55:17.313Z,3.40
2018-07-06T08:57:47.185Z,3.60
2018-07-06T09:00:16.083Z,4.00
2018-07-06T09:02:44.766Z,3.20
2018-07-06T09:05:14.187Z,3.90
2018-07-06T09:07:43.007Z,3.50
2018-07-06T09:10:11.610Z,3.12
2018-07-06T09:12:40.772Z,3.42
2018-07-06T09:15:10.227Z,3.55
2018-07-06T09:17:38.788Z,3.22
2018-07-06T09:20:07.572Z,3.30
2018-07-06T09:22:36.170Z,3.40
2018-07-06T09:25:06.251Z,3.58
2018-07-06T09:27:35.256Z,3.72
2018-07-06T09:30:03.637Z,3.40
2018-07-06T09:32:32.418Z,3.50
2018-07-06T09:35:02.535Z,4.28
2018-07-06T09:37:31.055Z,3.85
2018-07-06T09:39:59.509Z,4.05
2018-07-06T09:42:28.312Z,4.45
2018-07-06T09:44:56.911Z,4.25
2018-07-06T09:47:26.057Z,4.35
2018-07-06T09:49:54.663Z,5.03
2018-07-06T09:52:24.177Z,5.05
2018-07-06T09:55:02.114Z,5.72
2018-07-06T09:57:30.973Z,5.80
2018-07-06T09:59:59.851Z,6.20
2018-07-06T10:02:33.307Z,6.30
2018-07-06T10:05:04.201Z,5.72
2018-07-06T10:07:34.758Z,7.10
2018-07-06T10:10:04.954Z,7.50
2018-07-06T10:12:34.787Z,7.70
2018-07-06T10:15:11.737Z,8.53
2018-07-06T10:17:40.147Z,9.00
2018-07-06T10:20:08.644Z,10.55
2018-07-06T10:22:37.086Z,11.33
2018-07-06T10:25:05.766Z,11.25
2018-07-06T10:27:43.245Z,11.63
2018-07-06T10:30:21.777Z,11.93
2018-07-06T10:32:50.220Z,11.48
2018-07-06T10:35:18.809Z,10.95
2018-07-06T10:37:47.259Z,10.40
2018-07-06T10:40:15.744Z,9.10
2018-07-06T10:42:45.127Z,8.05
2018-07-06T10:45:13.541Z,8.23
2018-07-06T10:47:42.199Z,7.22
2018-07-06T10:50:10.712Z,6.25
2018-07-06T10:52:39.339Z,5.55
2018-07-06T10:55:08.089Z,5.53
2018-07-06T10:57:36.476Z,5.15
2018-07-06T11:00:05.064Z,5.25
2018-07-06T11:02:33.465Z,5.12
2018-07-06T11:05:01.971Z,5.65
2018-07-06T11:07:30.308Z,5.50
2018-07-06T11:09:59.661Z,5.80
2018-07-06T11:12:28.316Z,6.87
2018-07-06T11:14:58.569Z,6.90
2018-07-06T11:17:27.525Z,7.33
2018-07-06T11:19:56.725Z,6.80
2018-07-06T11:22:26.817Z,7.28
2018-07-06T11:24:55.647Z,7.20
2018-07-06T11:27:25.928Z,6.97
2018-07-06T11:29:54.399Z,8.15
2018-07-06T11:32:22.940Z,7.92
2018-07-06T11:34:52.009Z,7.20
2018-07-06T11:37:20.645Z,7.45
2018-07-06T11:39:50.073Z,7.00
2018-07-06T11:42:18.733Z,7.00
2018-07-06T11:44:47.161Z,6.37
2018-07-06T11:47:15.929Z,7.20
2018-07-06T11:49:44.391Z,6.90
2018-07-06T11:52:12.913Z,7.10
2018-07-06T11:54:41.362Z,7.15
2018-07-06T11:57:09.843Z,8.23
2018-07-06T11:59:38.511Z,6.92
2018-07-06T12:02:07.029Z,7.25
2018-07-06T12:04:35.572Z,7.33
2018-07-06T12:07:04.822Z,7.42
2018-07-06T12:09:33.491Z,6.75
2018-07-06T12:12:02.725Z,6.70
2018-07-06T12:14:31.230Z,5.95
2018-07-06T12:17:04.867Z,6.72
2018-07-06T12:19:33.397Z,5.83
2018-07-06T12:22:01.925Z,6.50
2018-07-06T12:24:30.429Z,6.67
2018-07-06T12:26:58.995Z,6.05
2018-07-06T12:29:28.493Z,6.42
2018-07-06T12:31:56.910Z,6.65
2018-07-06T12:34:25.517Z,7.65
2018-07-06T12:36:54.105Z,6.60
2018-07-06T12:39:22.530Z,5.95
2018-07-06T12:41:51.429Z,5.60
2018-07-06T12:44:19.841Z,5.30
2018-07-06T12:46:48.294Z,5.62
2018-07-06T12:49:16.876Z,6.03
2018-07-06T12:51:45.336Z,5.83
2018-07-06T12:54:13.967Z,5.55
2018-07-06T12:56:42.889Z,5.50
2018-07-06T12:59:11.350Z,5.17
2018-07-06T13:01:39.905Z,4.58
2018-07-06T13:04:08.391Z,4.00
2018-07-06T13:06:36.889Z,4.45
2018-07-06T13:09:05.747Z,5.50
2018-07-06T13:11:34.451Z,5.58
2018-07-06T13:14:02.905Z,7.45
2018-07-06T13:16:31.217Z,5.15
2018-07-06T13:19:00.273Z,5.03
2018-07-06T13:21:28.663Z,4.95
2018-07-06T13:23:57.299Z,5.55
2018-07-06T13:26:26.249Z,5.15
2018-07-06T13:28:56.514Z,6.03
2018-07-06T13:31:25.078Z,6.10
2018-07-06T13:33:53.556Z,5.25
2018-07-06T13:36:21.993Z,5.62
2018-07-06T13:38:50.472Z,5.22
2018-07-06T13:41:19.083Z,5.37
2018-07-06T13:43:47.701Z,8.58
2018-07-06T13:46:16.170Z,9.70
2018-07-06T13:48:44.645Z,7.80
2018-07-06T13:51:13.143Z,5.85
2018-07-06T13:53:41.923Z,6.12
2018-07-06T13:56:11.179Z,4.72
2018-07-06T13:58:39.604Z,4.58
2018-07-06T14:01:08.657Z,4.00
2018-07-06T14:03:37.482Z,4.40
2018-07-06T14:06:06.179Z,4.97
2018-07-06T14:08:35.242Z,5.40
2018-07-06T14:11:03.803Z,5.72
2018-07-06T14:13:32.470Z,5.10
2018-07-06T14:16:01.530Z,4.17
2018-07-06T14:18:30.271Z,4.10
2018-07-06T14:20:58.871Z,3.90
2018-07-06T14:23:27.473Z,3.90
2018-07-06T14:25:56.031Z,3.87
2018-07-06T14:28:24.510Z,4.00
2018-07-06T14:30:53.066Z,3.40
2018-07-06T14:33:22.096Z,4.80
2018-07-06T14:35:50.810Z,3.10
2018-07-06T14:38:19.282Z,2.90
2018-07-06T14:40:47.731Z,2.75
2018-07-06T14:43:19.480Z,3.10
2018-07-06T14:45:48.381Z,3.80
2018-07-06T14:48:16.809Z,4.00
2018-07-06T14:50:45.296Z,3.87
2018-07-06T14:53:14.067Z,2.62
2018-07-06T14:55:42.713Z,2.77
2018-07-06T14:58:11.848Z,3.90
2018-07-06T15:00:40.351Z,3.55
2018-07-06T15:03:10.539Z,2.50
2018-07-06T15:05:41.520Z,2.50
2018-07-06T15:08:10.193Z,2.33
2018-07-06T15:10:38.711Z,2.77
2018-07-06T15:13:07.379Z,2.80
2018-07-06T15:17:05.231Z,2.87
2018-07-06T15:19:33.875Z,2.90
2018-07-06T15:22:02.525Z,3.25
2018-07-06T15:24:31.073Z,3.17
2018-07-06T15:27:00.023Z,2.98
2018-07-06T15:29:28.865Z,2.62
2018-07-06T15:31:57.276Z,2.85
2018-07-06T15:34:25.818Z,3.17
2018-07-06T15:36:54.460Z,3.00
2018-07-06T15:39:23.640Z,2.87
2018-07-06T15:41:52.336Z,2.80
2018-07-06T15:44:20.905Z,2.25
2018-07-06T15:46:49.948Z,2.58
2018-07-06T15:49:18.680Z,2.60
2018-07-06T15:51:47.193Z,2.60
2018-07-06T15:54:15.971Z,2.80
2018-07-06T15:56:44.605Z,3.00
2018-07-06T15:59:13.145Z,3.00
2018-07-06T16:01:41.861Z,2.33
2018-07-06T16:04:10.512Z,2.60
2018-07-06T16:06:39.129Z,2.60
2018-07-06T16:09:07.770Z,2.60
2018-07-06T16:11:36.315Z,2.70
2018-07-06T16:14:04.907Z,2.45
2018-07-06T16:16:33.483Z,2.55
2018-07-06T16:19:02.039Z,2.67
2018-07-06T16:21:30.664Z,2.60
2018-07-06T16:23:59.276Z,2.50
2018-07-06T16:26:28.096Z,2.47
2018-07-06T16:28:57.130Z,3.02
2018-07-06T16:31:25.710Z,2.62
2018-07-06T16:33:54.556Z,2.70
2018-07-06T16:36:23.237Z,2.37
2018-07-06T16:38:51.866Z,2.75
2018-07-06T16:41:21.930Z,2.55
2018-07-06T16:43:50.409Z,2.50
2018-07-06T16:46:18.970Z,2.58
2018-07-06T16:48:48.612Z,3.12
2018-07-06T16:51:17.328Z,3.30
2018-07-06T16:53:45.905Z,3.30
2018-07-06T16:56:14.644Z,2.85
2018-07-06T16:58:44.638Z,3.65
2018-07-06T17:01:13.317Z,3.52
2018-07-06T17:03:42.930Z,3.20
2018-07-06T17:06:11.879Z,3.37
2018-07-06T17:08:40.739Z,3.37
2018-07-06T17:11:10.637Z,3.40
2018-07-06T17:13:39.628Z,3.85
2018-07-06T17:16:08.883Z,4.17
2018-07-06T17:18:37.634Z,4.25
2018-07-06T17:21:06.783Z,4.10
2018-07-06T17:23:36.268Z,4.15
2018-07-06T17:26:27.479Z,3.83
2018-07-06T17:28:56.258Z,3.72
2018-07-06T17:31:26.193Z,4.30
2018-07-06T17:33:57.377Z,3.75
2018-07-06T17:36:27.927Z,4.25
2018-07-06T17:38:57.271Z,4.42
2018-07-06T17:41:26.155Z,4.10
2018-07-06T17:43:56.964Z,3.72
2018-07-06T17:46:26.087Z,3.77
2018-07-06T17:48:55.394Z,3.58
2018-07-06T17:51:24.541Z,3.20
2018-07-06T17:53:59.135Z,3.30
2018-07-06T17:56:33.171Z,3.12
2018-07-06T17:59:20.838Z,3.20
2018-07-06T18:31:43.712Z,4.42
2018-07-06T18:34:13.658Z,3.15
2018-07-06T18:36:53.206Z,3.45
2018-07-06T18:39:23.160Z,2.80
2018-07-06T18:41:53.720Z,2.77
2018-07-06T18:44:23.496Z,3.02
2018-07-06T18:49:36.574Z,3.08
2018-07-06T18:52:16.854Z,3.17
2018-07-06T18:54:47.753Z,3.25
2018-07-06T18:57:22.290Z,3.42
2018-07-06T18:59:52.486Z,3.10
2018-07-06T19:02:28.283Z,4.10
2018-07-06T19:04:59.158Z,3.17
2018-07-06T19:07:30.764Z,3.08
2018-07-06T19:10:01.321Z,3.40
2018-07-06T19:12:31.884Z,3.20
2018-07-06T19:15:01.093Z,3.00
2018-07-06T19:17:30.110Z,3.22
2018-07-06T19:19:58.932Z,2.80
2018-07-06T19:22:28.038Z,3.10
2018-07-06T19:24:56.836Z,3.27
2018-07-06T19:27:27.079Z,2.90
2018-07-06T19:29:56.153Z,3.33
2018-07-06T19:32:25.006Z,3.00
2018-07-06T19:34:54.343Z,2.80
2018-07-06T19:37:23.434Z,3.17
2018-07-06T19:39:53.414Z,3.42
2018-07-06T19:42:23.878Z,4.10
2018-07-06T19:44:52.924Z,3.40
2018-07-06T19:47:22.123Z,3.15
2018-07-06T19:49:51.081Z,3.75
2018-07-06T19:52:20.270Z,3.22
2018-07-06T19:54:50.713Z,2.85
2018-07-06T19:57:33.389Z,2.70
2018-07-06T20:00:02.988Z,2.92
2018-07-06T20:02:32.214Z,3.17
2018-07-06T20:05:02.142Z,2.90
2018-07-06T20:07:32.733Z,3.15
2018-07-06T20:10:02.508Z,3.42
2018-07-06T20:12:31.558Z,3.05
2018-07-06T20:15:02.307Z,3.20
2018-07-06T20:17:33.864Z,3.20
2018-07-06T20:20:03.333Z,3.33
2018-07-06T20:22:32.433Z,3.33
2018-07-06T20:25:05.644Z,3.12
2018-07-06T20:27:34.658Z,3.35
2018-07-06T20:30:03.719Z,3.10
2018-07-06T20:32:34.370Z,3.12
2018-07-06T20:35:04.903Z,5.08
2018-07-06T20:37:34.888Z,3.92
2018-07-06T20:40:19.072Z,3.95
2018-07-06T20:45:51.503Z,3.52
2018-07-06T20:48:21.212Z,3.30
2018-07-06T20:50:51.863Z,3.47
2018-07-06T20:53:21.443Z,3.33
2018-07-06T20:56:03.105Z,3.62
2018-07-06T20:58:40.927Z,3.42
2018-07-06T21:01:10.839Z,3.08
2018-07-06T21:03:40.905Z,2.90
2018-07-06T21:06:18.095Z,3.87
2018-07-06T21:08:48.017Z,3.85
2018-07-06T21:11:22.132Z,3.90
2018-07-06T21:13:51.847Z,3.27
2018-07-06T21:16:22.160Z,3.00
2018-07-06T21:18:53.560Z,3.10
2018-07-06T21:21:24.671Z,3.22
2018-07-06T21:23:54.938Z,3.27
2018-07-06T21:26:37.715Z,3.05
2018-07-06T21:29:06.740Z,3.30
2018-07-06T21:31:46.455Z,3.20
2018-07-06T21:34:15.748Z,2.92
2018-07-06T21:36:47.056Z,2.70
2018-07-06T21:39:16.044Z,2.90
2018-07-06T21:41:50.193Z,2.70
2018-07-06T21:44:19.947Z,3.02
2018-07-06T21:46:50.484Z,2.85
2018-07-06T21:49:20.494Z,3.20
2018-07-06T21:51:49.734Z,2.92
2018-07-06T21:54:18.629Z,2.90
2018-07-06T21:56:49.844Z,3.12
2018-07-06T21:59:21.154Z,2.98
2018-07-06T22:01:50.627Z,2.90
2018-07-06T22:04:20.623Z,2.95
2018-07-06T22:07:12.635Z,2.77
2018-07-06T22:09:45.017Z,2.87
2018-07-06T22:12:15.420Z,3.17
2018-07-06T22:14:48.042Z,2.80
2018-07-06T22:17:22.051Z,2.52
2018-07-06T22:19:51.522Z,2.80
2018-07-06T22:22:22.822Z,2.55
2018-07-06T22:24:53.008Z,2.62
2018-07-06T22:27:44.134Z,2.77
2018-07-06T22:30:13.450Z,2.58
2018-07-06T22:32:46.926Z,2.80
2018-07-06T22:35:22.155Z,2.20
2018-07-06T22:37:51.180Z,2.05
2018-07-06T22:40:20.823Z,2.55
2018-07-06T22:42:49.815Z,2.58
2018-07-06T22:45:18.318Z,2.72
2018-07-06T22:47:47.084Z,2.27
2018-07-06T22:50:15.606Z,2.62
2018-07-06T22:52:44.212Z,2.65
2018-07-06T22:55:13.283Z,2.55
2018-07-06T22:57:41.976Z,2.35
2018-07-06T23:00:10.822Z,2.30
2018-07-06T23:02:41.208Z,2.50
2018-07-06T23:05:12.997Z,2.58
2018-07-06T23:07:41.654Z,2.30
2018-07-06T23:10:10.166Z,2.30
2018-07-06T23:12:39.596Z,2.37
2018-07-06T23:15:08.734Z,2.52
2018-07-06T23:17:37.580Z,2.50
2018-07-06T23:20:09.058Z,2.35
2018-07-06T23:23:11.582Z,2.02
2018-07-06T23:25:42.164Z,2.27
2018-07-06T23:28:11.002Z,2.20
2018-07-06T23:30:39.536Z,2.50
2018-07-06T23:33:08.728Z,2.37
2018-07-06T23:35:37.440Z,2.20
2018-07-06T23:38:06.036Z,2.30
2018-07-06T23:40:34.434Z,2.10
2018-07-06T23:43:02.946Z,2.10
2018-07-06T23:45:31.742Z,1.90
2018-07-06T23:48:00.455Z,2.00
2018-07-06T23:50:29.324Z,2.10
2018-07-06T23:52:58.098Z,2.03
2018-07-06T23:55:26.720Z,2.12
2018-07-06T23:57:55.284Z,1.90
